メインページ
METAR-TAF:

METAR-TAF

空港 :

Medicine Hat, アルバータ州, カナダ

緯度: 50-01N, 経度: 110-43W, 海抜: 717m

現時点の気象観測

当レポートは59分前の10:00(UTC)に作成
南/南東の風 4kt
気温 12°C
湿度 88%
気圧 1016 hPa
視程: 14.5km
晴天

METAR: CYXH 051000Z AUTO 15004KT 9SM CLR 12/10 A2999 RMK SLP151 DENSITY ALT 2500FT

時間: 04:59 (10:59 UTC)

予報

当レポートは5時間21分前の05:38(UTC)に作成
予報は05日の 06時(UTC)から 05日の 18時(UTC)まで有効
変向風 3kt
視程: 10km
晴天
05日の 16時(UTC)から 05日の 18時(UTC)まで徐々に
の風 8kt

TAF: CYXH 050538Z 0506/0518 VRB03KT P6SM SKC BECMG 0516/0518 09008KT RMK FCST BASED ON AUTO OBS. NXT FCST BY 051200Z

4,000以上の空港の気象観測と天気予報(METAR報とTAF報)

利用可能な観測所は地図上に黄色い丸と赤い丸で示す。

丸の上にカーソルを重ねると観測所名を参照できる。

次にクリックすると気象観測と天気予報を参照できる。

マップの切り替え:黒色「×」印の緑ボタンをクリックして拡大、「-」印の緑ボタンをクリックして縮小、緑色の三角印をクリックして隣りの地図に切り替え


METAR-TAF: